NCAR-RAP Real-Time Weather Data

Output produced by METARs form (10 April 2020  07:29 UTC)
found at http://weather.rap.ucar.edu/surface/
 
KAPN 100654Z AUTO 30009KT 10SM OVC060 M01/M05 A2965 RMK AO2 SLP046 T10061050